sensor_id;sensor_type;location;lat;lon;timestamp;P1;durP1;ratioP1;P2;durP2;ratioP2
43114;SDS011;28727;50.068;14.452;2023-06-10T00:01:39;140.93;;;51.33;;
43114;SDS011;28727;50.068;14.452;2023-06-10T00:06:47;142.48;;;51.03;;
43114;SDS011;28727;50.068;14.452;2023-06-10T00:09:21;140.73;;;50.80;;
43114;SDS011;28727;50.068;14.452;2023-06-10T00:11:52;143.45;;;52.88;;
43114;SDS011;28727;50.068;14.452;2023-06-10T00:14:24;142.57;;;52.90;;
43114;SDS011;28727;50.068;14.452;2023-06-10T00:16:56;141.55;;;51.10;;
43114;SDS011;28727;50.068;14.452;2023-06-10T00:19:28;143.52;;;51.78;;
43114;SDS011;28727;50.068;14.452;2023-06-10T00:22:01;142.07;;;51.50;;
43114;SDS011;28727;50.068;14.452;2023-06-10T00:24:34;144.20;;;52.95;;
43114;SDS011;28727;50.068;14.452;2023-06-10T00:27:10;138.57;;;48.92;;
43114;SDS011;28727;50.068;14.452;2023-06-10T00:29:42;143.18;;;52.08;;
43114;SDS011;28727;50.068;14.452;2023-06-10T00:32:14;141.38;;;50.67;;
43114;SDS011;28727;50.068;14.452;2023-06-10T00:34:46;143.88;;;52.88;;
43114;SDS011;28727;50.068;14.452;2023-06-10T00:37:17;143.15;;;50.97;;
43114;SDS011;28727;50.068;14.452;2023-06-10T00:39:49;143.80;;;53.22;;
43114;SDS011;28727;50.068;14.452;2023-06-10T00:42:21;142.55;;;52.35;;
43114;SDS011;28727;50.068;14.452;2023-06-10T00:47:27;142.30;;;52.03;;
43114;SDS011;28727;50.068;14.452;2023-06-10T00:50:00;141.85;;;51.83;;
43114;SDS011;28727;50.068;14.452;2023-06-10T00:52:33;141.15;;;50.65;;
43114;SDS011;28727;50.068;14.452;2023-06-10T00:55:07;140.93;;;50.17;;
43114;SDS011;28727;50.068;14.452;2023-06-10T00:57:41;141.80;;;51.13;;
43114;SDS011;28727;50.068;14.452;2023-06-10T01:00:16;141.73;;;51.17;;
43114;SDS011;28727;50.068;14.452;2023-06-10T01:05:24;141.80;;;52.03;;
43114;SDS011;28727;50.068;14.452;2023-06-10T01:07:57;142.77;;;51.47;;
43114;SDS011;28727;50.068;14.452;2023-06-10T01:10:43;142.18;;;52.67;;
43114;SDS011;28727;50.068;14.452;2023-06-10T01:13:36;141.35;;;50.95;;
43114;SDS011;28727;50.068;14.452;2023-06-10T01:16:14;143.88;;;51.55;;
43114;SDS011;28727;50.068;14.452;2023-06-10T01:18:46;143.32;;;52.80;;
43114;SDS011;28727;50.068;14.452;2023-06-10T01:21:22;142.13;;;50.45;;
43114;SDS011;28727;50.068;14.452;2023-06-10T01:23:58;137.48;;;48.78;;
43114;SDS011;28727;50.068;14.452;2023-06-10T01:26:32;142.70;;;51.15;;
43114;SDS011;28727;50.068;14.452;2023-06-10T01:29:17;144.05;;;52.08;;
43114;SDS011;28727;50.068;14.452;2023-06-10T01:32:12;142.77;;;51.80;;
43114;SDS011;28727;50.068;14.452;2023-06-10T01:34:50;140.77;;;51.72;;
43114;SDS011;28727;50.068;14.452;2023-06-10T01:37:27;143.98;;;51.30;;
43114;SDS011;28727;50.068;14.452;2023-06-10T01:40:02;140.32;;;50.05;;
43114;SDS011;28727;50.068;14.452;2023-06-10T01:42:39;139.45;;;50.20;;
43114;SDS011;28727;50.068;14.452;2023-06-10T01:45:10;141.30;;;51.78;;
43114;SDS011;28727;50.068;14.452;2023-06-10T01:47:42;139.40;;;49.33;;
43114;SDS011;28727;50.068;14.452;2023-06-10T01:50:14;140.95;;;49.95;;
43114;SDS011;28727;50.068;14.452;2023-06-10T01:52:48;140.98;;;50.13;;
43114;SDS011;28727;50.068;14.452;2023-06-10T01:55:19;142.93;;;51.45;;
43114;SDS011;28727;50.068;14.452;2023-06-10T01:57:51;139.68;;;49.97;;
43114;SDS011;28727;50.068;14.452;2023-06-10T02:00:23;141.45;;;51.47;;
43114;SDS011;28727;50.068;14.452;2023-06-10T02:02:55;140.35;;;49.97;;
43114;SDS011;28727;50.068;14.452;2023-06-10T02:05:28;141.02;;;51.25;;
43114;SDS011;28727;50.068;14.452;2023-06-10T02:08:00;139.95;;;50.28;;
43114;SDS011;28727;50.068;14.452;2023-06-10T02:10:32;134.05;;;49.42;;
43114;SDS011;28727;50.068;14.452;2023-06-10T02:13:04;137.40;;;51.00;;
43114;SDS011;28727;50.068;14.452;2023-06-10T02:15:36;134.00;;;49.70;;
43114;SDS011;28727;50.068;14.452;2023-06-10T02:18:10;134.45;;;51.45;;
43114;SDS011;28727;50.068;14.452;2023-06-10T02:20:43;131.75;;;50.92;;
43114;SDS011;28727;50.068;14.452;2023-06-10T02:23:15;135.05;;;50.67;;
43114;SDS011;28727;50.068;14.452;2023-06-10T02:25:48;132.68;;;50.33;;
43114;SDS011;28727;50.068;14.452;2023-06-10T02:28:21;131.50;;;49.78;;
43114;SDS011;28727;50.068;14.452;2023-06-10T02:30:53;130.38;;;51.95;;
43114;SDS011;28727;50.068;14.452;2023-06-10T02:33:25;128.90;;;50.53;;
43114;SDS011;28727;50.068;14.452;2023-06-10T02:35:58;128.15;;;49.88;;
43114;SDS011;28727;50.068;14.452;2023-06-10T02:38:31;127.13;;;48.00;;
43114;SDS011;28727;50.068;14.452;2023-06-10T02:41:05;129.43;;;49.28;;
43114;SDS011;28727;50.068;14.452;2023-06-10T02:43:37;128.75;;;50.00;;
43114;SDS011;28727;50.068;14.452;2023-06-10T02:46:09;130.70;;;51.67;;
43114;SDS011;28727;50.068;14.452;2023-06-10T02:48:42;129.93;;;50.72;;
43114;SDS011;28727;50.068;14.452;2023-06-10T02:51:23;132.05;;;52.25;;
43114;SDS011;28727;50.068;14.452;2023-06-10T02:54:01;129.68;;;50.45;;
43114;SDS011;28727;50.068;14.452;2023-06-10T02:56:33;131.80;;;52.15;;
43114;SDS011;28727;50.068;14.452;2023-06-10T02:59:07;130.90;;;51.20;;
43114;SDS011;28727;50.068;14.452;2023-06-10T03:01:40;130.68;;;50.85;;
43114;SDS011;28727;50.068;14.452;2023-06-10T03:04:14;129.45;;;50.20;;
43114;SDS011;28727;50.068;14.452;2023-06-10T03:06:54;130.02;;;50.20;;
43114;SDS011;28727;50.068;14.452;2023-06-10T03:09:33;130.68;;;51.10;;
43114;SDS011;28727;50.068;14.452;2023-06-10T03:12:08;128.70;;;50.28;;
43114;SDS011;28727;50.068;14.452;2023-06-10T03:14:45;129.50;;;51.90;;
43114;SDS011;28727;50.068;14.452;2023-06-10T03:17:17;129.93;;;49.65;;
43114;SDS011;28727;50.068;14.452;2023-06-10T03:19:50;127.20;;;48.25;;
43114;SDS011;28727;50.068;14.452;2023-06-10T03:22:22;131.18;;;51.10;;
43114;SDS011;28727;50.068;14.452;2023-06-10T03:25:11;127.97;;;49.42;;
43114;SDS011;28727;50.068;14.452;2023-06-10T03:27:48;126.63;;;48.97;;
43114;SDS011;28727;50.068;14.452;2023-06-10T03:30:23;128.00;;;49.03;;
43114;SDS011;28727;50.068;14.452;2023-06-10T03:32:55;129.00;;;49.88;;
43114;SDS011;28727;50.068;14.452;2023-06-10T03:35:29;127.35;;;49.47;;
43114;SDS011;28727;50.068;14.452;2023-06-10T03:38:04;130.60;;;50.85;;
43114;SDS011;28727;50.068;14.452;2023-06-10T03:40:37;128.88;;;50.67;;
43114;SDS011;28727;50.068;14.452;2023-06-10T03:43:10;130.55;;;50.20;;
43114;SDS011;28727;50.068;14.452;2023-06-10T03:45:43;130.60;;;50.30;;
43114;SDS011;28727;50.068;14.452;2023-06-10T03:48:15;128.48;;;48.92;;
43114;SDS011;28727;50.068;14.452;2023-06-10T03:50:54;125.25;;;46.60;;
43114;SDS011;28727;50.068;14.452;2023-06-10T03:53:26;129.93;;;50.05;;
43114;SDS011;28727;50.068;14.452;2023-06-10T03:55:58;127.43;;;48.95;;
43114;SDS011;28727;50.068;14.452;2023-06-10T03:58:31;128.88;;;50.35;;
43114;SDS011;28727;50.068;14.452;2023-06-10T04:01:03;128.05;;;48.92;;
43114;SDS011;28727;50.068;14.452;2023-06-10T04:03:38;128.10;;;48.38;;
43114;SDS011;28727;50.068;14.452;2023-06-10T04:06:16;129.30;;;49.40;;
43114;SDS011;28727;50.068;14.452;2023-06-10T04:08:54;130.57;;;51.65;;
43114;SDS011;28727;50.068;14.452;2023-06-10T04:11:27;129.75;;;50.92;;
43114;SDS011;28727;50.068;14.452;2023-06-10T04:14:01;127.75;;;48.78;;
43114;SDS011;28727;50.068;14.452;2023-06-10T04:16:34;129.93;;;50.88;;
43114;SDS011;28727;50.068;14.452;2023-06-10T04:19:07;129.95;;;50.38;;
43114;SDS011;28727;50.068;14.452;2023-06-10T04:21:39;128.48;;;49.05;;
43114;SDS011;28727;50.068;14.452;2023-06-10T04:24:11;130.90;;;51.58;;
43114;SDS011;28727;50.068;14.452;2023-06-10T04:26:43;131.50;;;52.10;;
43114;SDS011;28727;50.068;14.452;2023-06-10T04:29:17;130.55;;;50.65;;
43114;SDS011;28727;50.068;14.452;2023-06-10T04:31:49;131.80;;;52.50;;
43114;SDS011;28727;50.068;14.452;2023-06-10T04:34:22;128.55;;;50.15;;
43114;SDS011;28727;50.068;14.452;2023-06-10T04:36:54;129.95;;;50.47;;
43114;SDS011;28727;50.068;14.452;2023-06-10T04:39:26;129.93;;;51.75;;
43114;SDS011;28727;50.068;14.452;2023-06-10T04:42:03;130.60;;;51.03;;
43114;SDS011;28727;50.068;14.452;2023-06-10T04:44:35;128.68;;;49.67;;
43114;SDS011;28727;50.068;14.452;2023-06-10T04:47:07;130.35;;;51.47;;
43114;SDS011;28727;50.068;14.452;2023-06-10T04:49:39;127.82;;;50.80;;
43114;SDS011;28727;50.068;14.452;2023-06-10T04:52:11;124.85;;;47.30;;
43114;SDS011;28727;50.068;14.452;2023-06-10T04:54:45;131.50;;;52.80;;
43114;SDS011;28727;50.068;14.452;2023-06-10T04:57:20;128.27;;;49.67;;
43114;SDS011;28727;50.068;14.452;2023-06-10T05:02:26;126.60;;;48.30;;
43114;SDS011;28727;50.068;14.452;2023-06-10T05:04:58;131.75;;;52.10;;
43114;SDS011;28727;50.068;14.452;2023-06-10T05:07:29;130.40;;;51.33;;
43114;SDS011;28727;50.068;14.452;2023-06-10T05:10:02;131.85;;;52.75;;
43114;SDS011;28727;50.068;14.452;2023-06-10T05:12:38;132.38;;;51.75;;
43114;SDS011;28727;50.068;14.452;2023-06-10T05:15:10;134.35;;;53.70;;
43114;SDS011;28727;50.068;14.452;2023-06-10T05:17:42;132.10;;;52.22;;
43114;SDS011;28727;50.068;14.452;2023-06-10T05:20:14;132.82;;;52.80;;
43114;SDS011;28727;50.068;14.452;2023-06-10T05:22:46;132.85;;;53.05;;
43114;SDS011;28727;50.068;14.452;2023-06-10T05:25:18;135.73;;;51.55;;
43114;SDS011;28727;50.068;14.452;2023-06-10T05:27:50;136.60;;;54.13;;
43114;SDS011;28727;50.068;14.452;2023-06-10T05:30:22;135.52;;;54.22;;
43114;SDS011;28727;50.068;14.452;2023-06-10T05:32:59;136.88;;;52.22;;
43114;SDS011;28727;50.068;14.452;2023-06-10T05:35:31;142.57;;;54.97;;
43114;SDS011;28727;50.068;14.452;2023-06-10T05:38:03;143.38;;;58.40;;
43114;SDS011;28727;50.068;14.452;2023-06-10T05:40:36;140.73;;;54.17;;
43114;SDS011;28727;50.068;14.452;2023-06-10T05:43:07;137.50;;;54.25;;
43114;SDS011;28727;50.068;14.452;2023-06-10T05:45:40;142.27;;;58.10;;
43114;SDS011;28727;50.068;14.452;2023-06-10T05:48:14;134.02;;;52.63;;
43114;SDS011;28727;50.068;14.452;2023-06-10T05:50:45;135.40;;;53.03;;
43114;SDS011;28727;50.068;14.452;2023-06-10T05:53:19;138.80;;;55.75;;
43114;SDS011;28727;50.068;14.452;2023-06-10T05:55:52;134.90;;;51.20;;
43114;SDS011;28727;50.068;14.452;2023-06-10T05:58:25;135.73;;;52.50;;
43114;SDS011;28727;50.068;14.452;2023-06-10T06:00:57;135.70;;;55.00;;
43114;SDS011;28727;50.068;14.452;2023-06-10T06:03:29;133.68;;;50.83;;
43114;SDS011;28727;50.068;14.452;2023-06-10T06:06:02;136.38;;;51.17;;
43114;SDS011;28727;50.068;14.452;2023-06-10T06:08:34;141.55;;;56.92;;
43114;SDS011;28727;50.068;14.452;2023-06-10T06:11:06;135.75;;;53.22;;
43114;SDS011;28727;50.068;14.452;2023-06-10T06:13:38;132.77;;;53.72;;
43114;SDS011;28727;50.068;14.452;2023-06-10T06:16:10;138.05;;;52.30;;
43114;SDS011;28727;50.068;14.452;2023-06-10T06:18:41;138.00;;;53.58;;
43114;SDS011;28727;50.068;14.452;2023-06-10T06:21:13;141.43;;;58.38;;
43114;SDS011;28727;50.068;14.452;2023-06-10T06:23:45;139.90;;;55.88;;
43114;SDS011;28727;50.068;14.452;2023-06-10T06:26:17;127.47;;;52.20;;
43114;SDS011;28727;50.068;14.452;2023-06-10T06:28:49;128.15;;;49.45;;
43114;SDS011;28727;50.068;14.452;2023-06-10T06:31:21;141.70;;;56.45;;
43114;SDS011;28727;50.068;14.452;2023-06-10T06:33:53;125.95;;;49.20;;
43114;SDS011;28727;50.068;14.452;2023-06-10T06:36:25;126.78;;;51.78;;
43114;SDS011;28727;50.068;14.452;2023-06-10T06:38:57;140.32;;;55.00;;
43114;SDS011;28727;50.068;14.452;2023-06-10T06:41:31;140.77;;;56.20;;
43114;SDS011;28727;50.068;14.452;2023-06-10T06:44:05;141.55;;;58.25;;
43114;SDS011;28727;50.068;14.452;2023-06-10T06:46:42;127.40;;;52.35;;
43114;SDS011;28727;50.068;14.452;2023-06-10T06:49:14;125.18;;;51.88;;
43114;SDS011;28727;50.068;14.452;2023-06-10T06:51:46;125.35;;;50.40;;
43114;SDS011;28727;50.068;14.452;2023-06-10T06:54:18;138.05;;;54.40;;
43114;SDS011;28727;50.068;14.452;2023-06-10T06:56:50;120.03;;;51.10;;
43114;SDS011;28727;50.068;14.452;2023-06-10T06:59:22;128.27;;;54.55;;
43114;SDS011;28727;50.068;14.452;2023-06-10T07:01:54;126.55;;;52.75;;
43114;SDS011;28727;50.068;14.452;2023-06-10T07:04:29;134.70;;;55.90;;
43114;SDS011;28727;50.068;14.452;2023-06-10T07:07:02;129.55;;;54.38;;
43114;SDS011;28727;50.068;14.452;2023-06-10T07:09:34;120.63;;;50.65;;
43114;SDS011;28727;50.068;14.452;2023-06-10T07:12:06;132.82;;;56.42;;
43114;SDS011;28727;50.068;14.452;2023-06-10T07:14:38;129.18;;;55.50;;
43114;SDS011;28727;50.068;14.452;2023-06-10T07:17:10;127.47;;;55.08;;
43114;SDS011;28727;50.068;14.452;2023-06-10T07:19:42;123.32;;;51.92;;
43114;SDS011;28727;50.068;14.452;2023-06-10T07:22:14;139.25;;;56.08;;
43114;SDS011;28727;50.068;14.452;2023-06-10T07:24:45;140.90;;;56.78;;
43114;SDS011;28727;50.068;14.452;2023-06-10T07:27:17;137.52;;;53.50;;
43114;SDS011;28727;50.068;14.452;2023-06-10T07:29:50;141.05;;;56.15;;
43114;SDS011;28727;50.068;14.452;2023-06-10T07:32:24;129.30;;;49.88;;
43114;SDS011;28727;50.068;14.452;2023-06-10T07:34:56;125.50;;;48.97;;
43114;SDS011;28727;50.068;14.452;2023-06-10T07:37:28;139.25;;;56.13;;
43114;SDS011;28727;50.068;14.452;2023-06-10T07:40:00;140.15;;;55.63;;
43114;SDS011;28727;50.068;14.452;2023-06-10T07:42:34;139.48;;;55.03;;
43114;SDS011;28727;50.068;14.452;2023-06-10T07:45:07;130.70;;;53.55;;
43114;SDS011;28727;50.068;14.452;2023-06-10T07:47:39;139.63;;;55.38;;
43114;SDS011;28727;50.068;14.452;2023-06-10T07:50:14;125.82;;;51.15;;
43114;SDS011;28727;50.068;14.452;2023-06-10T07:52:46;139.18;;;54.58;;
43114;SDS011;28727;50.068;14.452;2023-06-10T07:55:18;128.90;;;52.70;;
43114;SDS011;28727;50.068;14.452;2023-06-10T07:57:53;127.68;;;52.50;;
43114;SDS011;28727;50.068;14.452;2023-06-10T08:00:26;136.68;;;54.35;;
43114;SDS011;28727;50.068;14.452;2023-06-10T08:02:58;123.97;;;51.78;;
43114;SDS011;28727;50.068;14.452;2023-06-10T08:05:30;135.70;;;55.33;;
43114;SDS011;28727;50.068;14.452;2023-06-10T08:08:01;135.65;;;54.05;;
43114;SDS011;28727;50.068;14.452;2023-06-10T08:10:35;134.77;;;55.92;;
43114;SDS011;28727;50.068;14.452;2023-06-10T08:13:07;138.10;;;55.83;;
43114;SDS011;28727;50.068;14.452;2023-06-10T08:15:40;137.77;;;55.53;;
43114;SDS011;28727;50.068;14.452;2023-06-10T08:18:13;123.40;;;49.17;;
43114;SDS011;28727;50.068;14.452;2023-06-10T08:20:45;124.35;;;51.00;;
43114;SDS011;28727;50.068;14.452;2023-06-10T08:23:16;124.72;;;50.50;;
43114;SDS011;28727;50.068;14.452;2023-06-10T08:25:48;128.00;;;52.95;;
43114;SDS011;28727;50.068;14.452;2023-06-10T08:28:22;140.13;;;54.45;;
43114;SDS011;28727;50.068;14.452;2023-06-10T08:30:54;140.60;;;57.95;;
43114;SDS011;28727;50.068;14.452;2023-06-10T08:33:28;138.85;;;54.47;;
43114;SDS011;28727;50.068;14.452;2023-06-10T08:36:05;138.27;;;54.42;;
43114;SDS011;28727;50.068;14.452;2023-06-10T08:38:38;129.32;;;52.22;;
43114;SDS011;28727;50.068;14.452;2023-06-10T08:41:10;131.82;;;52.65;;
43114;SDS011;28727;50.068;14.452;2023-06-10T08:43:46;133.27;;;52.35;;
43114;SDS011;28727;50.068;14.452;2023-06-10T08:46:25;139.93;;;55.72;;
43114;SDS011;28727;50.068;14.452;2023-06-10T08:49:02;129.07;;;50.15;;
43114;SDS011;28727;50.068;14.452;2023-06-10T08:51:39;137.63;;;53.08;;
43114;SDS011;28727;50.068;14.452;2023-06-10T08:54:15;126.78;;;49.80;;
43114;SDS011;28727;50.068;14.452;2023-06-10T08:56:52;136.85;;;54.58;;
43114;SDS011;28727;50.068;14.452;2023-06-10T08:59:26;137.32;;;53.60;;
43114;SDS011;28727;50.068;14.452;2023-06-10T09:01:58;134.85;;;52.70;;
43114;SDS011;28727;50.068;14.452;2023-06-10T09:04:32;138.80;;;54.25;;
43114;SDS011;28727;50.068;14.452;2023-06-10T09:07:05;128.23;;;48.05;;
43114;SDS011;28727;50.068;14.452;2023-06-10T09:09:38;137.75;;;54.20;;
43114;SDS011;28727;50.068;14.452;2023-06-10T09:12:18;136.82;;;51.88;;
43114;SDS011;28727;50.068;14.452;2023-06-10T09:14:50;138.02;;;54.47;;
43114;SDS011;28727;50.068;14.452;2023-06-10T09:17:22;137.60;;;54.67;;
43114;SDS011;28727;50.068;14.452;2023-06-10T09:19:54;135.35;;;53.70;;
43114;SDS011;28727;50.068;14.452;2023-06-10T09:22:28;137.73;;;53.90;;
43114;SDS011;28727;50.068;14.452;2023-06-10T09:25:07;126.95;;;49.83;;
43114;SDS011;28727;50.068;14.452;2023-06-10T09:27:49;138.88;;;55.30;;
43114;SDS011;28727;50.068;14.452;2023-06-10T09:33:01;139.55;;;55.38;;
43114;SDS011;28727;50.068;14.452;2023-06-10T09:35:35;124.05;;;49.58;;
43114;SDS011;28727;50.068;14.452;2023-06-10T09:38:07;139.23;;;55.50;;
43114;SDS011;28727;50.068;14.452;2023-06-10T09:40:50;140.50;;;57.65;;
43114;SDS011;28727;50.068;14.452;2023-06-10T09:43:38;125.10;;;51.35;;
43114;SDS011;28727;50.068;14.452;2023-06-10T09:46:18;137.15;;;55.47;;
43114;SDS011;28727;50.068;14.452;2023-06-10T09:48:51;139.23;;;57.03;;
43114;SDS011;28727;50.068;14.452;2023-06-10T09:51:22;124.85;;;51.63;;
43114;SDS011;28727;50.068;14.452;2023-06-10T09:53:54;124.47;;;52.13;;
43114;SDS011;28727;50.068;14.452;2023-06-10T09:56:37;126.97;;;52.20;;
43114;SDS011;28727;50.068;14.452;2023-06-10T09:59:12;137.82;;;56.03;;
43114;SDS011;28727;50.068;14.452;2023-06-10T10:01:45;125.90;;;52.22;;
43114;SDS011;28727;50.068;14.452;2023-06-10T10:04:26;135.15;;;56.97;;
43114;SDS011;28727;50.068;14.452;2023-06-10T10:07:00;134.48;;;55.10;;
43114;SDS011;28727;50.068;14.452;2023-06-10T10:09:31;133.48;;;54.90;;
43114;SDS011;28727;50.068;14.452;2023-06-10T10:12:21;120.63;;;48.03;;
43114;SDS011;28727;50.068;14.452;2023-06-10T10:14:58;123.18;;;52.10;;
43114;SDS011;28727;50.068;14.452;2023-06-10T10:17:30;121.53;;;52.63;;
43114;SDS011;28727;50.068;14.452;2023-06-10T10:20:06;130.40;;;56.63;;
43114;SDS011;28727;50.068;14.452;2023-06-10T10:22:43;132.07;;;54.30;;
43114;SDS011;28727;50.068;14.452;2023-06-10T10:25:21;130.23;;;55.05;;
43114;SDS011;28727;50.068;14.452;2023-06-10T10:28:02;120.15;;;53.50;;
43114;SDS011;28727;50.068;14.452;2023-06-10T10:30:37;118.28;;;53.10;;
43114;SDS011;28727;50.068;14.452;2023-06-10T10:33:20;129.48;;;55.78;;
43114;SDS011;28727;50.068;14.452;2023-06-10T10:35:59;123.93;;;56.53;;
43114;SDS011;28727;50.068;14.452;2023-06-10T10:38:32;114.78;;;54.40;;
43114;SDS011;28727;50.068;14.452;2023-06-10T10:41:04;117.75;;;54.70;;
43114;SDS011;28727;50.068;14.452;2023-06-10T10:43:38;125.15;;;56.22;;
43114;SDS011;28727;50.068;14.452;2023-06-10T10:46:13;114.32;;;56.15;;
43114;SDS011;28727;50.068;14.452;2023-06-10T10:48:46;120.10;;;59.78;;
43114;SDS011;28727;50.068;14.452;2023-06-10T10:51:25;116.75;;;57.78;;
43114;SDS011;28727;50.068;14.452;2023-06-10T10:54:10;124.15;;;59.63;;
43114;SDS011;28727;50.068;14.452;2023-06-10T11:05:05;127.38;;;61.22;;
43114;SDS011;28727;50.068;14.452;2023-06-10T11:07:51;123.75;;;57.20;;
43114;SDS011;28727;50.068;14.452;2023-06-10T11:10:30;125.82;;;59.25;;
43114;SDS011;28727;50.068;14.452;2023-06-10T11:13:13;127.55;;;60.85;;
43114;SDS011;28727;50.068;14.452;2023-06-10T11:15:47;126.10;;;61.30;;
43114;SDS011;28727;50.068;14.452;2023-06-10T11:18:28;124.22;;;56.45;;
43114;SDS011;28727;50.068;14.452;2023-06-10T11:21:04;126.55;;;59.60;;
43114;SDS011;28727;50.068;14.452;2023-06-10T11:23:40;124.82;;;59.78;;
43114;SDS011;28727;50.068;14.452;2023-06-10T11:31:27;122.10;;;55.20;;
43114;SDS011;28727;50.068;14.452;2023-06-10T11:34:00;120.43;;;57.75;;
43114;SDS011;28727;50.068;14.452;2023-06-10T11:36:38;119.85;;;54.92;;
43114;SDS011;28727;50.068;14.452;2023-06-10T11:39:16;118.60;;;54.53;;
43114;SDS011;28727;50.068;14.452;2023-06-10T11:41:49;120.47;;;55.70;;
43114;SDS011;28727;50.068;14.452;2023-06-10T11:44:25;112.20;;;54.80;;
43114;SDS011;28727;50.068;14.452;2023-06-10T11:47:00;118.80;;;57.28;;
43114;SDS011;28727;50.068;14.452;2023-06-10T11:49:32;115.28;;;54.25;;
43114;SDS011;28727;50.068;14.452;2023-06-10T11:52:04;124.32;;;54.50;;
43114;SDS011;28727;50.068;14.452;2023-06-10T11:54:37;114.70;;;53.47;;
43114;SDS011;28727;50.068;14.452;2023-06-10T11:57:09;121.57;;;54.58;;
43114;SDS011;28727;50.068;14.452;2023-06-10T11:59:41;121.85;;;55.45;;
43114;SDS011;28727;50.068;14.452;2023-06-10T12:02:16;119.03;;;55.75;;
43114;SDS011;28727;50.068;14.452;2023-06-10T12:04:48;120.60;;;54.22;;
43114;SDS011;28727;50.068;14.452;2023-06-10T12:07:21;122.10;;;55.67;;
43114;SDS011;28727;50.068;14.452;2023-06-10T12:10:00;122.43;;;54.38;;
43114;SDS011;28727;50.068;14.452;2023-06-10T12:12:49;115.38;;;53.90;;
43114;SDS011;28727;50.068;14.452;2023-06-10T12:15:24;123.40;;;57.25;;
43114;SDS011;28727;50.068;14.452;2023-06-10T12:17:56;123.70;;;54.45;;
43114;SDS011;28727;50.068;14.452;2023-06-10T12:20:29;121.57;;;55.17;;
43114;SDS011;28727;50.068;14.452;2023-06-10T12:23:10;117.18;;;54.38;;
43114;SDS011;28727;50.068;14.452;2023-06-10T12:25:50;119.28;;;56.00;;
43114;SDS011;28727;50.068;14.452;2023-06-10T12:28:26;120.60;;;55.08;;
43114;SDS011;28727;50.068;14.452;2023-06-10T12:31:08;120.53;;;56.47;;
43114;SDS011;28727;50.068;14.452;2023-06-10T12:33:39;119.60;;;56.47;;
43114;SDS011;28727;50.068;14.452;2023-06-10T12:36:16;113.93;;;57.15;;
43114;SDS011;28727;50.068;14.452;2023-06-10T12:38:49;116.35;;;54.90;;
43114;SDS011;28727;50.068;14.452;2023-06-10T12:41:21;115.18;;;54.95;;
43114;SDS011;28727;50.068;14.452;2023-06-10T12:43:53;120.47;;;58.25;;
43114;SDS011;28727;50.068;14.452;2023-06-10T12:46:25;123.25;;;55.88;;
43114;SDS011;28727;50.068;14.452;2023-06-10T12:49:07;122.35;;;55.60;;
43114;SDS011;28727;50.068;14.452;2023-06-10T12:51:39;116.80;;;56.03;;
43114;SDS011;28727;50.068;14.452;2023-06-10T12:54:12;123.50;;;56.47;;
43114;SDS011;28727;50.068;14.452;2023-06-10T12:56:44;123.15;;;55.92;;
43114;SDS011;28727;50.068;14.452;2023-06-10T12:59:16;123.47;;;57.17;;
43114;SDS011;28727;50.068;14.452;2023-06-10T13:01:52;124.70;;;56.25;;
43114;SDS011;28727;50.068;14.452;2023-06-10T13:04:27;127.32;;;59.72;;
43114;SDS011;28727;50.068;14.452;2023-06-10T13:06:59;123.50;;;56.85;;
43114;SDS011;28727;50.068;14.452;2023-06-10T13:09:32;123.85;;;56.47;;
43114;SDS011;28727;50.068;14.452;2023-06-10T13:12:04;126.18;;;59.67;;
43114;SDS011;28727;50.068;14.452;2023-06-10T13:14:37;126.03;;;56.90;;
43114;SDS011;28727;50.068;14.452;2023-06-10T13:17:08;125.57;;;55.78;;
43114;SDS011;28727;50.068;14.452;2023-06-10T13:19:40;123.43;;;56.60;;
43114;SDS011;28727;50.068;14.452;2023-06-10T13:22:12;124.75;;;57.53;;
43114;SDS011;28727;50.068;14.452;2023-06-10T13:24:45;125.97;;;57.95;;
43114;SDS011;28727;50.068;14.452;2023-06-10T13:27:18;125.93;;;55.47;;
43114;SDS011;28727;50.068;14.452;2023-06-10T13:29:52;126.95;;;55.28;;
43114;SDS011;28727;50.068;14.452;2023-06-10T13:32:27;125.97;;;58.10;;
43114;SDS011;28727;50.068;14.452;2023-06-10T13:34:59;128.27;;;56.97;;
43114;SDS011;28727;50.068;14.452;2023-06-10T13:37:35;127.20;;;56.25;;
43114;SDS011;28727;50.068;14.452;2023-06-10T13:40:08;122.68;;;57.33;;
43114;SDS011;28727;50.068;14.452;2023-06-10T13:42:41;119.40;;;55.33;;
43114;SDS011;28727;50.068;14.452;2023-06-10T13:45:14;123.80;;;57.35;;
43114;SDS011;28727;50.068;14.452;2023-06-10T13:47:46;120.97;;;57.85;;
43114;SDS011;28727;50.068;14.452;2023-06-10T13:50:18;122.72;;;57.08;;
43114;SDS011;28727;50.068;14.452;2023-06-10T13:52:49;121.40;;;58.85;;
43114;SDS011;28727;50.068;14.452;2023-06-10T13:55:22;118.10;;;55.17;;
43114;SDS011;28727;50.068;14.452;2023-06-10T13:57:56;110.30;;;56.53;;
43114;SDS011;28727;50.068;14.452;2023-06-10T14:00:28;116.82;;;53.67;;
43114;SDS011;28727;50.068;14.452;2023-06-10T14:03:00;113.15;;;55.88;;
43114;SDS011;28727;50.068;14.452;2023-06-10T14:05:32;113.22;;;55.72;;
43114;SDS011;28727;50.068;14.452;2023-06-10T14:08:04;119.65;;;55.30;;
43114;SDS011;28727;50.068;14.452;2023-06-10T14:10:36;112.03;;;54.20;;
43114;SDS011;28727;50.068;14.452;2023-06-10T14:13:08;118.13;;;54.00;;
43114;SDS011;28727;50.068;14.452;2023-06-10T14:15:40;122.25;;;55.22;;
43114;SDS011;28727;50.068;14.452;2023-06-10T14:18:11;116.53;;;53.67;;
43114;SDS011;28727;50.068;14.452;2023-06-10T14:20:43;114.78;;;54.22;;
43114;SDS011;28727;50.068;14.452;2023-06-10T14:23:15;115.80;;;54.38;;
43114;SDS011;28727;50.068;14.452;2023-06-10T14:25:49;119.90;;;55.08;;
43114;SDS011;28727;50.068;14.452;2023-06-10T14:28:21;117.00;;;53.13;;
43114;SDS011;28727;50.068;14.452;2023-06-10T14:30:54;113.57;;;55.33;;
43114;SDS011;28727;50.068;14.452;2023-06-10T14:33:26;116.65;;;57.05;;
43114;SDS011;28727;50.068;14.452;2023-06-10T14:35:58;121.10;;;54.38;;
43114;SDS011;28727;50.068;14.452;2023-06-10T14:38:30;120.88;;;53.33;;
43114;SDS011;28727;50.068;14.452;2023-06-10T14:41:03;119.50;;;52.22;;
43114;SDS011;28727;50.068;14.452;2023-06-10T14:43:35;114.18;;;55.45;;
43114;SDS011;28727;50.068;14.452;2023-06-10T14:46:07;119.45;;;54.28;;
43114;SDS011;28727;50.068;14.452;2023-06-10T14:48:39;120.88;;;54.85;;
43114;SDS011;28727;50.068;14.452;2023-06-10T14:51:10;109.40;;;51.97;;
43114;SDS011;28727;50.068;14.452;2023-06-10T14:53:42;115.55;;;54.75;;
43114;SDS011;28727;50.068;14.452;2023-06-10T14:56:17;116.53;;;54.55;;
43114;SDS011;28727;50.068;14.452;2023-06-10T14:58:48;109.70;;;55.88;;
43114;SDS011;28727;50.068;14.452;2023-06-10T15:01:20;115.30;;;53.85;;